Aérodrome :
LOGIN :

S'inscrire | Disclaimer

   EN    FR    IT 

 










Légende :    VFR   VFR Marginal   IFR   IFR Intensif   IFR Très Intensif
Visi : 
Plafond : 
>= 8 km
>= 3000ft
5 à 8 km
1000 à 3000 ft
1500m à 5 km
500 à 1000 ft
800 à 1500m
200 à 500 ft
< 800m
< 200 ft
Symboles :   Orages  Brouillard  Fortes neiges  Fortes précipitations  Vent > 20 kt
SIGMETs :   Divers  Orages  Givrage  Turbulence  Onde Orograph.  Cendres Volcan.







- Altitude de l'aérodrome : 19 ft
- Code IATA : BEB
- Voir les cartes d'approche


EGPL - Benbecula

DERNIER METAR :
  • 230820Z 21023KT 2800 -RADZ BR OVC004 15/14 Q1013

METARs EXPIRÉS :
  • 230750Z 21024KT 5000 -RADZ OVC005 15/14 Q1012
  • 230720Z 21022KT 4000 -RADZ OVC004 15/14 Q1012
  • 230650Z 21022KT 4000 -RADZ OVC004 15/14 Q1012
  • 230620Z 21022KT 6000 -RA OVC006 15/14 Q1012
  • 230550Z AUTO 21022KT 8000 OVC004/// 15/14 Q1011

TAF TAF EGPL
Valide du 23 à 09h jusqu'au 23 à 17h UTC


230802Z 2309/2317 22020G30KT 9999 SCT005 BKN010
TEMPO 2309/2310 4000 -RADZ BKN004
BECMG 2310/2312 SCT014 BKN018
ATIS : +44 1870 604 818
Pas de NOTAMs connus pour ce terrain.



MET'MAP, la Météo Aéronautique d'un coup d'oeil ! - Copyright ORBIFLY Décembre 2007 - Disclaimer

ORBIFLY MET'MAP TEAM :

Programmation & Développement : Alexandra Zaïnal
Conception & Développement : Baudouin d'Aumeries
Co-Programmation & Développement : Marc-Olivier Méhu
Soutien technique & logistique : Manuel Goepfert

Contact : metmap@orbifly.com




SOURCES & CREDITS :

   NOAA